Time;durP1;ratioP1;P1;durP2;ratioP2;P2;SDS_P1;SDS_P2;PMS_P1;PMS_P2;Temp;Humidity;BMP_temperature;BMP_pressure;BME280_temperature;BME280_humidity;BME280_pressure;Samples;Min_cycle;Max_cycle;Signal;HPM_P1;HPM_P2
2021/12/09 00:00:08;;;;;;;;;;;21.10;44.40;;;;;;4955751;28;19910;-75
2021/12/09 00:02:38;;;;;;;;;;;21.10;44.90;;;;;;4956896;28;20184;-75
2021/12/09 00:05:04;;;;;;;;;;;21.10;45.10;;;;;;4973120;28;19910;-75
2021/12/09 00:07:30;;;;;;;;;;;21.10;45.20;;;;;;4972606;28;20330;-75
2021/12/09 00:09:56;;;;;;;;;;;21.10;45.40;;;;;;4973306;28;19910;-75
2021/12/09 00:12:23;;;;;;;;;;;21.10;45.50;;;;;;4978998;28;19909;-76
2021/12/09 00:14:50;;;;;;;;;;;21.10;45.50;;;;;;4972487;28;19919;-75
2021/12/09 00:17:16;;;;;;;;;;;21.10;45.90;;;;;;4988587;23;19929;-74
2021/12/09 00:19:41;;;;;;;;;;;21.10;45.90;;;;;;4955131;28;19910;-76
2021/12/09 00:22:09;;;;;;;;;;;21.10;46.40;;;;;;4964276;28;19965;-75
2021/12/09 00:24:35;;;;;;;;;;;21.10;46.50;;;;;;4973060;28;19924;-75
2021/12/09 00:27:01;;;;;;;;;;;21.10;46.40;;;;;;4955742;28;19910;-75
2021/12/09 00:29:26;;;;;;;;;;;21.20;47.00;;;;;;4955314;28;20246;-75
2021/12/09 00:31:52;;;;;;;;;;;21.10;47.10;;;;;;4972132;28;19952;-75
2021/12/09 00:34:19;;;;;;;;;;;21.10;47.20;;;;;;4972911;28;19909;-74
2021/12/09 00:36:57;;;;;;;;;;;21.10;47.40;;;;;;4971613;28;19934;-74
2021/12/09 00:39:23;;;;;;;;;;;21.10;47.90;;;;;;4990618;28;20470;-75
2021/12/09 00:41:49;;;;;;;;;;;21.10;48.10;;;;;;4984595;28;20001;-75
2021/12/09 00:44:14;;;;;;;;;;;21.10;47.60;;;;;;4972791;28;19910;-73
2021/12/09 00:46:40;;;;;;;;;;;21.10;47.90;;;;;;4972952;28;19910;-74
2021/12/09 00:49:06;;;;;;;;;;;21.10;47.80;;;;;;4972988;28;19910;-75
2021/12/09 00:51:32;;;;;;;;;;;21.10;47.80;;;;;;4972539;28;19910;-75
2021/12/09 00:53:57;;;;;;;;;;;21.10;48.00;;;;;;4974424;28;20405;-76
2021/12/09 00:56:23;;;;;;;;;;;21.10;47.80;;;;;;4956244;28;20350;-73
2021/12/09 00:58:49;;;;;;;;;;;21.10;47.80;;;;;;4974831;28;19910;-76
2021/12/09 01:01:15;;;;;;;;;;;21.10;47.50;;;;;;4925334;28;19910;-76
2021/12/09 01:03:41;;;;;;;;;;;21.10;47.10;;;;;;4974526;28;19910;-75
2021/12/09 01:06:08;;;;;;;;;;;21.10;47.20;;;;;;4974032;28;20052;-75
2021/12/09 01:08:34;;;;;;;;;;;21.10;47.50;;;;;;4973833;28;19917;-75
2021/12/09 01:11:01;;;;;;;;;;;21.10;47.20;;;;;;4974991;28;20290;-75
2021/12/09 01:13:27;;;;;;;;;;;21.10;47.20;;;;;;4976021;28;19913;-74
2021/12/09 01:15:53;;;;;;;;;;;21.10;47.20;;;;;;4977599;28;20039;-76
2021/12/09 01:18:18;;;;;;;;;;;21.10;47.20;;;;;;4974703;28;20081;-75
2021/12/09 01:20:44;;;;;;;;;;;21.10;47.10;;;;;;4957356;28;19921;-76
2021/12/09 01:23:10;;;;;;;;;;;21.10;47.20;;;;;;4975369;28;20005;-76
2021/12/09 01:25:37;;;;;;;;;;;21.10;47.20;;;;;;4960293;28;19945;-77
2021/12/09 01:28:08;;;;;;;;;;;21.10;47.30;;;;;;4961876;28;19910;-76
2021/12/09 01:30:34;;;;;;;;;;;21.10;47.40;;;;;;4958463;28;20336;-77
2021/12/09 01:33:00;;;;;;;;;;;21.10;47.40;;;;;;4958013;28;19910;-77
2021/12/09 01:35:28;;;;;;;;;;;21.10;47.50;;;;;;4956662;28;19918;-77
2021/12/09 01:38:00;;;;;;;;;;;21.10;47.50;;;;;;4958342;28;19910;-77
2021/12/09 01:40:27;;;;;;;;;;;21.10;47.60;;;;;;4956322;28;19917;-77
2021/12/09 01:42:53;;;;;;;;;;;21.10;47.70;;;;;;4972777;28;20397;-77
2021/12/09 01:45:19;;;;;;;;;;;21.10;47.70;;;;;;4972602;28;19964;-77
2021/12/09 01:47:45;;;;;;;;;;;21.10;47.80;;;;;;4955999;28;19997;-77
2021/12/09 01:50:11;;;;;;;;;;;21.10;47.80;;;;;;4972998;28;19992;-77
2021/12/09 01:52:37;;;;;;;;;;;21.10;47.80;;;;;;4973175;28;19914;-77
2021/12/09 01:55:04;;;;;;;;;;;21.10;47.80;;;;;;4972893;28;19916;-76
2021/12/09 01:57:32;;;;;;;;;;;21.10;48.00;;;;;;4973051;28;19957;-77
2021/12/09 01:59:57;;;;;;;;;;;21.10;48.00;;;;;;4955696;28;19940;-77
2021/12/09 02:02:23;;;;;;;;;;;21.10;48.20;;;;;;4973103;28;19910;-77
2021/12/09 02:04:49;;;;;;;;;;;21.10;48.10;;;;;;4972434;28;19910;-77
2021/12/09 02:07:15;;;;;;;;;;;21.10;48.30;;;;;;4972337;28;20363;-77
2021/12/09 02:09:40;;;;;;;;;;;21.10;48.50;;;;;;4972817;28;19914;-77
2021/12/09 02:12:06;;;;;;;;;;;21.10;48.60;;;;;;4955640;28;19961;-77
2021/12/09 02:14:32;;;;;;;;;;;21.10;48.70;;;;;;4955167;28;19914;-77
2021/12/09 02:16:58;;;;;;;;;;;21.10;48.60;;;;;;4972733;28;19920;-77
2021/12/09 02:19:25;;;;;;;;;;;21.10;48.70;;;;;;4972523;28;19917;-77
2021/12/09 02:21:52;;;;;;;;;;;21.10;48.70;;;;;;4972901;28;19910;-77
2021/12/09 02:24:18;;;;;;;;;;;21.10;48.60;;;;;;4972524;28;20005;-77
2021/12/09 02:26:45;;;;;;;;;;;21.10;48.60;;;;;;4954782;28;19961;-77
2021/12/09 02:29:12;;;;;;;;;;;21.10;48.60;;;;;;4972450;28;19914;-77
2021/12/09 02:31:38;;;;;;;;;;;21.10;48.80;;;;;;4955133;28;19910;-77
2021/12/09 02:34:05;;;;;;;;;;;21.10;48.90;;;;;;4955072;28;20258;-77
2021/12/09 02:36:35;;;;;;;;;;;21.10;48.70;;;;;;4954853;28;19914;-77
2021/12/09 02:39:02;;;;;;;;;;;21.10;48.60;;;;;;4972452;28;20331;-77
2021/12/09 02:41:28;;;;;;;;;;;21.10;48.80;;;;;;4955415;28;19933;-77
2021/12/09 02:43:58;;;;;;;;;;;21.10;48.50;;;;;;4972233;28;20359;-77
2021/12/09 02:46:24;;;;;;;;;;;21.10;48.60;;;;;;4972084;28;19910;-77
2021/12/09 02:48:50;;;;;;;;;;;21.10;48.50;;;;;;4972248;28;20409;-77
2021/12/09 02:51:16;;;;;;;;;;;21.10;48.50;;;;;;4972229;28;19911;-77
2021/12/09 02:53:42;;;;;;;;;;;21.10;48.60;;;;;;4971825;28;19910;-77
2021/12/09 02:56:08;;;;;;;;;;;21.10;48.60;;;;;;4956678;28;20425;-77
2021/12/09 02:58:34;;;;;;;;;;;21.10;48.60;;;;;;4975774;28;20001;-77
2021/12/09 03:01:04;;;;;;;;;;;21.10;48.60;;;;;;4975808;28;19916;-77
2021/12/09 03:03:29;;;;;;;;;;;21.10;48.60;;;;;;4975550;28;19910;-77
2021/12/09 03:05:56;;;;;;;;;;;21.10;48.60;;;;;;4958256;28;19910;-77
2021/12/09 03:08:33;;;;;;;;;;;21.10;48.60;;;;;;4975513;28;19914;-77
2021/12/09 03:11:07;;;;;;;;;;;21.10;48.70;;;;;;4958260;28;19916;-77
2021/12/09 03:13:34;;;;;;;;;;;21.10;48.80;;;;;;4975542;28;19910;-77
2021/12/09 03:15:59;;;;;;;;;;;21.10;48.70;;;;;;4975038;28;19914;-78
2021/12/09 03:18:25;;;;;;;;;;;21.10;48.70;;;;;;4958193;28;19921;-77
2021/12/09 03:20:51;;;;;;;;;;;21.10;48.70;;;;;;4958220;28;19917;-77
2021/12/09 03:23:17;;;;;;;;;;;21.10;48.70;;;;;;4957942;28;19921;-77
2021/12/09 03:25:42;;;;;;;;;;;21.10;48.80;;;;;;4957670;28;19917;-77
2021/12/09 03:28:08;;;;;;;;;;;21.10;48.80;;;;;;4941910;28;20295;-77
2021/12/09 03:30:34;;;;;;;;;;;21.10;48.80;;;;;;4975150;28;19917;-77
2021/12/09 03:32:59;;;;;;;;;;;21.10;48.90;;;;;;4975413;28;19917;-77
2021/12/09 03:35:25;;;;;;;;;;;21.10;49.00;;;;;;4974691;28;20081;-77
2021/12/09 03:37:51;;;;;;;;;;;21.10;49.30;;;;;;4957844;28;19947;-77
2021/12/09 03:40:17;;;;;;;;;;;21.20;49.50;;;;;;4974924;28;20279;-77
2021/12/09 03:42:43;;;;;;;;;;;21.20;49.00;;;;;;4975263;28;20290;-77
2021/12/09 03:45:09;;;;;;;;;;;21.20;49.60;;;;;;4974465;28;19917;-77
2021/12/09 03:47:35;;;;;;;;;;;21.20;49.10;;;;;;4957650;28;19910;-77
2021/12/09 03:50:03;;;;;;;;;;;21.20;49.10;;;;;;4957857;28;20331;-77
2021/12/09 03:52:29;;;;;;;;;;;21.20;49.00;;;;;;4974756;28;20334;-77
2021/12/09 03:54:55;;;;;;;;;;;21.20;49.00;;;;;;4957311;28;19910;-77
2021/12/09 03:57:21;;;;;;;;;;;21.20;49.10;;;;;;4957412;28;19910;-77
2021/12/09 03:59:46;;;;;;;;;;;21.20;49.00;;;;;;4957226;28;20004;-77
2021/12/09 04:02:12;;;;;;;;;;;21.20;49.10;;;;;;4974673;28;19910;-77
2021/12/09 04:04:38;;;;;;;;;;;21.20;49.20;;;;;;4974177;28;19973;-78
2021/12/09 04:07:04;;;;;;;;;;;21.20;49.10;;;;;;4974460;28;20378;-78
2021/12/09 04:09:30;;;;;;;;;;;21.10;49.00;;;;;;4974570;28;19910;-78
2021/12/09 04:11:56;;;;;;;;;;;21.20;49.10;;;;;;4957412;28;19910;-77
2021/12/09 04:14:21;;;;;;;;;;;21.20;48.90;;;;;;4974346;28;19999;-77
2021/12/09 04:16:47;;;;;;;;;;;21.10;48.90;;;;;;4956820;28;19944;-78
2021/12/09 04:19:13;;;;;;;;;;;21.20;49.40;;;;;;4974663;28;19917;-77
2021/12/09 04:21:40;;;;;;;;;;;21.10;49.10;;;;;;4957236;28;20004;-77
2021/12/09 04:24:09;;;;;;;;;;;21.10;48.90;;;;;;4956909;28;20287;-77
2021/12/09 04:26:36;;;;;;;;;;;21.10;48.90;;;;;;4973874;28;19945;-77
2021/12/09 04:29:02;;;;;;;;;;;21.10;48.90;;;;;;4956870;28;20353;-77
2021/12/09 04:31:28;;;;;;;;;;;21.10;49.00;;;;;;4974028;28;19987;-77
2021/12/09 04:33:53;;;;;;;;;;;21.10;48.90;;;;;;4957112;28;19941;-78
2021/12/09 04:36:21;;;;;;;;;;;21.10;49.00;;;;;;4973560;28;19913;-77
2021/12/09 04:38:48;;;;;;;;;;;21.10;49.00;;;;;;4973692;28;19997;-77
2021/12/09 04:41:14;;;;;;;;;;;21.10;49.00;;;;;;4956395;28;19909;-77
2021/12/09 04:43:41;;;;;;;;;;;21.10;49.00;;;;;;4974420;28;19910;-77
2021/12/09 04:46:07;;;;;;;;;;;21.10;49.00;;;;;;4956023;28;19910;-78
2021/12/09 04:48:32;;;;;;;;;;;21.20;49.10;;;;;;4974014;28;20370;-77
2021/12/09 04:50:58;;;;;;;;;;;21.10;49.00;;;;;;4956210;28;19914;-77
2021/12/09 04:53:24;;;;;;;;;;;21.20;49.10;;;;;;4973757;28;19956;-77
2021/12/09 04:55:49;;;;;;;;;;;21.10;49.10;;;;;;4973656;28;20346;-77
2021/12/09 04:58:15;;;;;;;;;;;21.10;49.00;;;;;;4973630;28;19910;-77
2021/12/09 05:00:41;;;;;;;;;;;21.20;49.10;;;;;;4973284;28;20283;-77
2021/12/09 05:03:10;;;;;;;;;;;21.20;49.10;;;;;;4972033;28;19971;-77
2021/12/09 05:05:39;;;;;;;;;;;21.20;49.30;;;;;;4972168;28;19984;-77
2021/12/09 05:08:07;;;;;;;;;;;21.20;49.40;;;;;;4973912;28;19914;-78
2021/12/09 05:10:50;;;;;;;;;;;21.20;49.30;;;;;;4973272;28;19910;-78
2021/12/09 05:13:16;;;;;;;;;;;21.20;49.10;;;;;;4956330;28;19973;-77
2021/12/09 05:15:41;;;;;;;;;;;21.30;49.30;;;;;;4955410;28;19921;-77
2021/12/09 05:18:08;;;;;;;;;;;21.20;49.20;;;;;;4972790;28;19918;-77
2021/12/09 05:20:33;;;;;;;;;;;21.20;49.30;;;;;;4973326;28;19909;-77
2021/12/09 05:22:59;;;;;;;;;;;21.20;49.20;;;;;;4955922;28;20004;-77
2021/12/09 05:25:25;;;;;;;;;;;21.20;49.30;;;;;;4955509;28;19910;-78
2021/12/09 05:27:51;;;;;;;;;;;21.20;49.30;;;;;;4973038;28;19910;-78
2021/12/09 05:30:23;;;;;;;;;;;21.20;49.10;;;;;;4972874;28;19940;-78
2021/12/09 05:32:49;;;;;;;;;;;21.20;49.10;;;;;;4973013;28;19906;-78
2021/12/09 05:35:15;;;;;;;;;;;21.20;49.10;;;;;;4955709;28;20027;-78
2021/12/09 05:37:41;;;;;;;;;;;21.20;49.10;;;;;;4973242;28;19914;-78
2021/12/09 05:40:07;;;;;;;;;;;21.20;49.00;;;;;;4972979;28;19910;-77
2021/12/09 05:42:32;;;;;;;;;;;21.20;49.10;;;;;;4973016;28;19917;-77
2021/12/09 05:44:59;;;;;;;;;;;21.20;49.20;;;;;;4955337;28;20282;-77
2021/12/09 05:47:25;;;;;;;;;;;21.20;49.40;;;;;;4972799;28;19917;-77
2021/12/09 05:49:52;;;;;;;;;;;21.20;49.10;;;;;;4939885;28;19910;-77
2021/12/09 05:52:18;;;;;;;;;;;21.20;49.50;;;;;;4972764;28;20383;-78
2021/12/09 05:54:44;;;;;;;;;;;21.20;49.40;;;;;;4939523;28;19916;-78
2021/12/09 05:57:09;;;;;;;;;;;21.20;49.30;;;;;;4972762;28;19921;-77
2021/12/09 05:59:40;;;;;;;;;;;21.20;49.30;;;;;;4955796;28;20382;-77
2021/12/09 06:02:07;;;;;;;;;;;21.20;49.50;;;;;;4972671;28;19906;-77
2021/12/09 06:04:32;;;;;;;;;;;21.20;49.60;;;;;;4972471;28;19910;-77
2021/12/09 06:06:58;;;;;;;;;;;21.20;49.30;;;;;;4972651;28;20008;-77
2021/12/09 06:09:24;;;;;;;;;;;21.20;49.40;;;;;;4955704;28;19917;-77
2021/12/09 06:11:50;;;;;;;;;;;21.20;49.50;;;;;;4955475;28;19933;-77
2021/12/09 06:14:16;;;;;;;;;;;21.20;49.50;;;;;;4972813;28;19917;-77
2021/12/09 06:16:42;;;;;;;;;;;21.20;49.50;;;;;;4983317;23;19925;-75
2021/12/09 06:19:08;;;;;;;;;;;21.20;49.40;;;;;;4959364;28;19918;-75
2021/12/09 06:21:33;;;;;;;;;;;21.20;49.30;;;;;;4955724;28;19965;-75
2021/12/09 06:24:00;;;;;;;;;;;21.20;49.40;;;;;;4973298;28;19986;-75
2021/12/09 06:26:26;;;;;;;;;;;21.20;49.50;;;;;;4954651;28;19917;-75
2021/12/09 06:28:52;;;;;;;;;;;21.20;49.60;;;;;;4972590;28;19910;-75
2021/12/09 06:31:19;;;;;;;;;;;21.20;49.50;;;;;;4957780;28;19910;-75
2021/12/09 06:33:45;;;;;;;;;;;21.20;49.60;;;;;;4959196;28;19917;-75
2021/12/09 06:36:10;;;;;;;;;;;21.20;49.60;;;;;;4958485;28;19914;-75
2021/12/09 06:38:36;;;;;;;;;;;21.30;49.70;;;;;;4959016;28;19910;-75
2021/12/09 06:41:02;;;;;;;;;;;21.30;49.60;;;;;;4958944;28;19914;-76
2021/12/09 06:43:28;;;;;;;;;;;21.30;49.60;;;;;;4958836;28;19981;-75
2021/12/09 06:45:55;;;;;;;;;;;21.30;49.50;;;;;;4975640;28;19910;-76
2021/12/09 06:48:21;;;;;;;;;;;21.30;49.50;;;;;;4958603;28;20004;-76
2021/12/09 06:50:46;;;;;;;;;;;21.20;49.70;;;;;;4958721;28;19910;-75
2021/12/09 06:53:14;;;;;;;;;;;21.20;49.60;;;;;;4975700;28;19910;-75
2021/12/09 06:55:40;;;;;;;;;;;21.20;49.70;;;;;;4958270;28;19957;-76
2021/12/09 06:58:06;;;;;;;;;;;21.20;49.50;;;;;;4975581;28;19910;-76
2021/12/09 07:00:32;;;;;;;;;;;21.20;49.60;;;;;;4975569;28;20338;-75
2021/12/09 07:02:59;;;;;;;;;;;21.20;49.70;;;;;;4958500;28;19964;-76
2021/12/09 07:05:26;;;;;;;;;;;21.20;49.70;;;;;;4958322;28;19916;-75
2021/12/09 07:07:52;;;;;;;;;;;21.20;49.50;;;;;;4958114;28;19965;-75
2021/12/09 07:10:18;;;;;;;;;;;21.20;49.50;;;;;;4958317;28;19914;-75
2021/12/09 07:12:44;;;;;;;;;;;21.20;49.60;;;;;;4975559;28;19910;-76
2021/12/09 07:15:11;;;;;;;;;;;21.20;49.70;;;;;;4975273;28;20422;-75
2021/12/09 07:17:37;;;;;;;;;;;21.20;49.70;;;;;;4975171;28;19942;-75
2021/12/09 07:20:04;;;;;;;;;;;21.20;49.60;;;;;;4975658;28;20375;-75
2021/12/09 07:22:29;;;;;;;;;;;21.20;49.50;;;;;;4975349;28;19910;-76
2021/12/09 07:24:55;;;;;;;;;;;21.20;49.80;;;;;;4974936;28;20005;-75
2021/12/09 07:27:21;;;;;;;;;;;21.20;49.70;;;;;;4975108;28;19921;-75
2021/12/09 07:29:47;;;;;;;;;;;21.20;49.80;;;;;;4975282;28;19910;-75
2021/12/09 07:32:12;;;;;;;;;;;21.20;49.50;;;;;;4975200;28;20001;-75
2021/12/09 07:34:38;;;;;;;;;;;21.20;49.50;;;;;;4957631;28;19921;-75
2021/12/09 07:37:05;;;;;;;;;;;21.20;49.40;;;;;;4974849;28;19914;-75
2021/12/09 07:39:31;;;;;;;;;;;21.20;49.50;;;;;;4975035;28;19965;-75
2021/12/09 07:41:59;;;;;;;;;;;21.20;49.50;;;;;;4974669;28;19910;-75
2021/12/09 07:44:26;;;;;;;;;;;21.20;49.80;;;;;;4973656;28;19914;-75
2021/12/09 07:46:53;;;;;;;;;;;21.20;49.70;;;;;;4974809;28;19918;-75
2021/12/09 07:49:20;;;;;;;;;;;21.20;50.00;;;;;;4974782;28;19932;-75
2021/12/09 07:51:46;;;;;;;;;;;21.20;49.80;;;;;;4974762;28;20290;-75
2021/12/09 07:54:11;;;;;;;;;;;21.30;49.80;;;;;;4957666;28;19964;-75
2021/12/09 07:56:37;;;;;;;;;;;21.30;49.70;;;;;;4974390;28;19969;-75
2021/12/09 07:59:03;;;;;;;;;;;21.30;49.70;;;;;;4974671;28;19910;-74
2021/12/09 08:01:29;;;;;;;;;;;21.30;49.80;;;;;;4974857;28;20310;-75
2021/12/09 08:03:55;;;;;;;;;;;21.30;49.60;;;;;;4957512;28;19910;-76
2021/12/09 08:06:21;;;;;;;;;;;21.30;49.70;;;;;;4974167;28;19910;-75
2021/12/09 08:08:46;;;;;;;;;;;21.30;49.80;;;;;;4974547;28;20012;-75
2021/12/09 08:11:12;;;;;;;;;;;21.30;49.80;;;;;;4941180;28;19910;-75
2021/12/09 08:13:38;;;;;;;;;;;21.30;49.70;;;;;;4974432;28;19960;-75
2021/12/09 08:16:03;;;;;;;;;;;21.30;49.90;;;;;;4974215;28;19913;-75
2021/12/09 08:18:32;;;;;;;;;;;21.30;49.90;;;;;;4974343;28;19920;-75
2021/12/09 08:20:59;;;;;;;;;;;21.30;49.90;;;;;;4974256;28;20359;-75
2021/12/09 08:23:25;;;;;;;;;;;21.30;50.00;;;;;;4974124;28;19964;-75
2021/12/09 08:25:51;;;;;;;;;;;21.30;50.00;;;;;;4956209;28;20402;-75
2021/12/09 08:28:17;;;;;;;;;;;21.20;49.80;;;;;;4973904;28;20289;-75
2021/12/09 08:30:43;;;;;;;;;;;21.20;49.80;;;;;;4974279;28;19917;-75
2021/12/09 08:33:09;;;;;;;;;;;21.20;49.60;;;;;;4971437;28;20390;-75
2021/12/09 08:35:35;;;;;;;;;;;21.20;49.60;;;;;;4973580;28;19918;-75
2021/12/09 08:38:02;;;;;;;;;;;21.20;49.60;;;;;;4973955;28;19946;-75
2021/12/09 08:40:28;;;;;;;;;;;21.20;49.50;;;;;;4973868;28;19910;-75
2021/12/09 08:42:53;;;;;;;;;;;21.20;49.60;;;;;;4973676;28;19910;-75
2021/12/09 08:45:19;;;;;;;;;;;21.20;49.70;;;;;;4973392;28;19910;-75
2021/12/09 08:47:45;;;;;;;;;;;21.20;49.60;;;;;;4956666;28;20363;-75
2021/12/09 08:50:12;;;;;;;;;;;21.20;49.60;;;;;;4973384;28;19993;-76
2021/12/09 08:52:38;;;;;;;;;;;21.20;49.70;;;;;;4973077;28;19910;-76
2021/12/09 08:55:05;;;;;;;;;;;21.20;49.70;;;;;;4973143;28;20013;-75
2021/12/09 08:57:36;;;;;;;;;;;21.20;50.10;;;;;;4973663;28;20425;-74
2021/12/09 09:00:03;;;;;;;;;;;21.30;49.80;;;;;;4972256;28;19914;-75
2021/12/09 09:02:29;;;;;;;;;;;21.10;48.80;;;;;;4956268;28;19917;-75
2021/12/09 09:04:55;;;;;;;;;;;20.70;41.30;;;;;;4972758;28;19910;-75
2021/12/09 09:07:21;;;;;;;;;;;20.30;38.50;;;;;;4973453;28;19964;-75
2021/12/09 09:09:47;;;;;;;;;;;20.10;38.60;;;;;;4972034;28;19909;-75
2021/12/09 09:12:17;;;;;;;;;;;20.20;43.50;;;;;;4973378;28;20358;-75
2021/12/09 09:14:42;;;;;;;;;;;20.40;42.90;;;;;;4972988;28;20370;-74
2021/12/09 09:17:08;;;;;;;;;;;20.60;41.70;;;;;;4973267;28;19914;-75
2021/12/09 09:19:34;;;;;;;;;;;20.70;42.30;;;;;;4971979;28;19910;-74
2021/12/09 09:22:00;;;;;;;;;;;20.70;41.70;;;;;;4972036;28;20000;-75
2021/12/09 09:24:26;;;;;;;;;;;20.80;42.70;;;;;;4971891;28;20438;-76
2021/12/09 09:26:52;;;;;;;;;;;20.90;41.50;;;;;;4973020;28;19914;-75
2021/12/09 09:29:18;;;;;;;;;;;20.90;42.00;;;;;;4972912;28;19993;-77
2021/12/09 09:31:44;;;;;;;;;;;20.90;42.30;;;;;;4973011;28;19992;-76
2021/12/09 09:34:11;;;;;;;;;;;21.00;44.70;;;;;;4973186;28;20356;-76
2021/12/09 09:36:43;;;;;;;;;;;20.90;44.00;;;;;;4972443;28;19918;-76
2021/12/09 09:39:17;;;;;;;;;;;20.90;43.70;;;;;;4973222;28;19910;-76
2021/12/09 09:41:45;;;;;;;;;;;20.90;43.80;;;;;;4955613;28;19960;-76
2021/12/09 09:44:16;;;;;;;;;;;20.90;44.30;;;;;;4973073;28;19917;-76
2021/12/09 09:46:42;;;;;;;;;;;20.90;44.50;;;;;;4972651;28;19914;-76
2021/12/09 09:49:08;;;;;;;;;;;20.90;44.40;;;;;;4972902;28;19910;-76
2021/12/09 09:51:35;;;;;;;;;;;20.90;44.40;;;;;;4972860;28;19965;-76
2021/12/09 09:54:01;;;;;;;;;;;20.90;44.70;;;;;;4972719;28;19914;-76
2021/12/09 09:56:27;;;;;;;;;;;20.90;45.10;;;;;;4972460;28;19918;-76
2021/12/09 09:58:58;;;;;;;;;;;20.90;45.30;;;;;;4972812;28;19910;-76
2021/12/09 10:01:24;;;;;;;;;;;20.90;45.30;;;;;;4972849;28;19993;-76
2021/12/09 10:03:52;;;;;;;;;;;20.90;45.50;;;;;;4972931;28;20339;-76
2021/12/09 10:06:18;;;;;;;;;;;20.90;45.70;;;;;;4975448;28;19910;-76
2021/12/09 10:08:44;;;;;;;;;;;20.90;45.60;;;;;;4975752;28;20237;-76
2021/12/09 10:11:10;;;;;;;;;;;20.90;45.80;;;;;;4976613;28;19910;-76
2021/12/09 10:13:37;;;;;;;;;;;20.90;45.90;;;;;;4975457;28;19910;-76
2021/12/09 10:16:07;;;;;;;;;;;20.90;45.90;;;;;;4974900;28;20361;-77
2021/12/09 10:18:34;;;;;;;;;;;20.90;46.00;;;;;;4976832;28;19918;-76
2021/12/09 10:21:02;;;;;;;;;;;20.90;46.20;;;;;;4976387;28;20406;-76
2021/12/09 10:23:32;;;;;;;;;;;20.90;46.20;;;;;;4959411;28;19910;-77
2021/12/09 10:26:10;;;;;;;;;;;20.90;46.30;;;;;;4975844;28;19910;-77
2021/12/09 10:28:36;;;;;;;;;;;20.90;46.40;;;;;;4959066;28;19910;-77
2021/12/09 10:31:10;;;;;;;;;;;20.90;46.50;;;;;;4976214;28;20264;-77
2021/12/09 10:34:00;;;;;;;;;;;20.90;46.50;;;;;;4975242;28;19910;-77
2021/12/09 10:36:41;;;;;;;;;;;20.90;46.70;;;;;;4975767;28;19920;-77
2021/12/09 10:39:21;;;;;;;;;;;20.90;46.70;;;;;;4975118;28;19974;-77
2021/12/09 10:41:47;;;;;;;;;;;20.90;46.80;;;;;;4975151;28;19910;-77
2021/12/09 10:44:13;;;;;;;;;;;20.90;46.80;;;;;;4975044;28;19965;-76
2021/12/09 10:46:55;;;;;;;;;;;20.90;46.90;;;;;;4976016;28;19910;-76
2021/12/09 10:49:22;;;;;;;;;;;20.90;46.90;;;;;;4974866;28;19910;-76
2021/12/09 10:51:58;;;;;;;;;;;20.90;46.90;;;;;;4975719;28;19910;-76
2021/12/09 10:54:35;;;;;;;;;;;20.90;47.70;;;;;;4975910;28;20271;-77
2021/12/09 10:57:19;;;;;;;;;;;20.90;48.60;;;;;;4974646;28;20027;-78
2021/12/09 10:59:45;;;;;;;;;;;20.90;47.50;;;;;;4974350;28;19909;-76
2021/12/09 11:02:11;;;;;;;;;;;20.90;47.40;;;;;;4975875;28;20041;-75
2021/12/09 11:04:37;;;;;;;;;;;20.90;47.80;;;;;;4975368;28;20001;-71
2021/12/09 11:07:18;;;;;;;;;;;20.90;47.50;;;;;;4975318;28;20442;-71
2021/12/09 11:09:44;;;;;;;;;;;20.50;41.20;;;;;;4958464;28;19917;-77
2021/12/09 11:12:25;;;;;;;;;;;20.10;37.90;;;;;;4958256;28;19910;-77
2021/12/09 11:14:57;;;;;;;;;;;20.10;39.20;;;;;;4975471;28;20330;-78
2021/12/09 11:17:33;;;;;;;;;;;20.20;41.70;;;;;;4973852;28;19914;-77
2021/12/09 11:19:59;;;;;;;;;;;20.30;41.90;;;;;;4955583;29;19918;-77
2021/12/09 11:22:30;;;;;;;;;;;20.30;42.30;;;;;;4956201;28;19910;-78
2021/12/09 11:25:00;;;;;;;;;;;20.40;42.80;;;;;;4956164;28;19911;-77
2021/12/09 11:27:28;;;;;;;;;;;20.40;43.10;;;;;;4938998;29;19911;-77
2021/12/09 11:30:03;;;;;;;;;;;20.50;43.40;;;;;;4956341;28;19932;-77
2021/12/09 11:32:39;;;;;;;;;;;20.50;43.60;;;;;;4939250;29;20697;-77
2021/12/09 11:35:13;;;;;;;;;;;20.60;43.50;;;;;;4957042;29;19918;-77
2021/12/09 11:37:45;;;;;;;;;;;20.60;43.60;;;;;;4956205;29;20298;-77
2021/12/09 11:40:15;;;;;;;;;;;20.60;43.70;;;;;;4956333;29;19997;-77
2021/12/09 11:43:01;;;;;;;;;;;20.70;45.20;;;;;;4956421;29;19914;-78
2021/12/09 11:45:30;;;;;;;;;;;20.70;46.60;;;;;;4954990;29;19921;-78
2021/12/09 11:47:56;;;;;;;;;;;20.80;46.90;;;;;;4955923;29;19915;-78
2021/12/09 11:50:26;;;;;;;;;;;20.80;47.80;;;;;;4955819;28;19914;-78
2021/12/09 11:52:53;;;;;;;;;;;20.80;46.10;;;;;;4955826;28;19914;-78
2021/12/09 11:55:21;;;;;;;;;;;20.80;47.40;;;;;;4938360;29;19918;-77
2021/12/09 11:57:54;;;;;;;;;;;20.80;46.90;;;;;;4955401;29;19993;-78
2021/12/09 12:11:50;;;;;;;;;;;20.90;47.60;;;;;;4955025;28;20008;-78
2021/12/09 12:14:42;;;;;;;;;;;20.80;46.90;;;;;;4955304;28;19997;-79
2021/12/09 12:17:25;;;;;;;;;;;20.80;46.50;;;;;;4978466;23;19926;-85
2021/12/09 12:23:01;;;;;;;;;;;20.80;46.30;;;;;;4957517;28;19917;-84
2021/12/09 12:26:14;;;;;;;;;;;20.80;46.30;;;;;;4957792;28;19910;-84
2021/12/09 12:28:47;;;;;;;;;;;20.80;46.30;;;;;;4922721;29;20001;-84
2021/12/09 12:31:53;;;;;;;;;;;20.70;46.30;;;;;;4955489;29;19914;-83
2021/12/09 12:39:59;;;;;;;;;;;20.80;46.60;;;;;;4955057;29;19958;-85
2021/12/09 12:42:43;;;;;;;;;;;20.80;46.60;;;;;;4954988;29;19911;-85
2021/12/09 12:45:09;;;;;;;;;;;20.80;46.70;;;;;;4954016;29;20275;-85
2021/12/09 12:47:42;;;;;;;;;;;20.80;46.70;;;;;;4955141;28;20013;-81
2021/12/09 12:50:09;;;;;;;;;;;20.70;46.70;;;;;;4955659;29;19965;-83
2021/12/09 12:52:35;;;;;;;;;;;20.70;46.90;;;;;;4955493;28;19954;-82
2021/12/09 12:55:12;;;;;;;;;;;20.70;46.90;;;;;;4937755;29;20005;-82
2021/12/09 12:57:44;;;;;;;;;;;20.70;46.80;;;;;;4939108;29;19965;-82
2021/12/09 13:00:30;;;;;;;;;;;20.70;46.90;;;;;;4956203;29;19917;-82
2021/12/09 13:03:17;;;;;;;;;;;20.70;47.00;;;;;;4939621;29;19928;-82
2021/12/09 13:16:21;;;;;;;;;;;20.70;47.20;;;;;;4960758;29;19918;-83
2021/12/09 13:19:32;;;;;;;;;;;20.70;47.10;;;;;;4957076;29;19984;-84
2021/12/09 13:21:52;;;;;;;;;;;20.70;47.20;;;;;;4962287;29;19917;-83
2021/12/09 13:24:19;;;;;;;;;;;20.70;47.10;;;;;;4951100;29;19956;-83
2021/12/09 13:27:05;;;;;;;;;;;20.70;47.20;;;;;;4964975;28;19910;-82
2021/12/09 13:29:48;;;;;;;;;;;20.70;47.10;;;;;;4936786;29;19958;-84
2021/12/09 13:32:44;;;;;;;;;;;20.70;47.20;;;;;;4961136;29;19958;-84
2021/12/09 13:35:14;;;;;;;;;;;20.70;47.30;;;;;;4939794;29;19920;-82
2021/12/09 13:46:17;;;;;;;;;;;20.70;47.30;;;;;;4955978;28;19968;-82
2021/12/09 13:49:08;;;;;;;;;;;20.60;47.30;;;;;;4940801;29;19910;-83
2021/12/09 13:54:26;;;;;;;;;;;20.60;47.40;;;;;;4923612;29;20291;-83
2021/12/09 13:57:00;;;;;;;;;;;20.60;47.40;;;;;;4923387;29;19914;-83
2021/12/09 13:59:29;;;;;;;;;;;20.60;47.40;;;;;;4939687;29;19914;-82
2021/12/09 14:01:56;;;;;;;;;;;20.60;47.40;;;;;;4923910;29;20326;-83
2021/12/09 14:04:34;;;;;;;;;;;20.60;47.40;;;;;;4956713;28;19917;-83
2021/12/09 14:07:08;;;;;;;;;;;20.60;47.40;;;;;;4955420;29;19910;-82
2021/12/09 14:09:35;;;;;;;;;;;20.60;47.40;;;;;;4956959;29;19910;-82
2021/12/09 14:12:03;;;;;;;;;;;20.60;47.40;;;;;;4955931;28;19957;-83
2021/12/09 14:14:41;;;;;;;;;;;20.60;47.40;;;;;;4926855;29;19918;-83
2021/12/09 14:17:12;;;;;;;;;;;20.60;47.50;;;;;;4904124;29;19914;-83
2021/12/09 14:19:58;;;;;;;;;;;20.60;47.50;;;;;;4917513;29;19921;-83
2021/12/09 14:22:28;;;;;;;;;;;20.70;47.50;;;;;;4934560;29;19911;-84
2021/12/09 14:24:55;;;;;;;;;;;20.60;47.40;;;;;;4950055;29;19910;-82
2021/12/09 14:27:21;;;;;;;;;;;20.60;47.50;;;;;;4953673;29;19933;-83
2021/12/09 14:29:48;;;;;;;;;;;20.60;47.50;;;;;;4953574;29;20378;-82
2021/12/09 14:32:14;;;;;;;;;;;20.60;47.60;;;;;;4953966;28;19910;-83
2021/12/09 14:34:50;;;;;;;;;;;20.60;47.60;;;;;;4952615;28;19926;-82
2021/12/09 14:37:16;;;;;;;;;;;20.60;47.50;;;;;;4953738;29;19919;-83
2021/12/09 14:39:42;;;;;;;;;;;20.60;47.60;;;;;;4953441;29;19910;-82
2021/12/09 14:42:16;;;;;;;;;;;20.60;47.60;;;;;;4936501;29;19918;-82
2021/12/09 14:44:58;;;;;;;;;;;20.60;47.60;;;;;;4952820;29;19910;-82
2021/12/09 14:47:24;;;;;;;;;;;20.60;47.60;;;;;;4952361;28;20298;-82
2021/12/09 14:49:52;;;;;;;;;;;20.60;47.60;;;;;;4953412;29;19936;-81
2021/12/09 14:52:25;;;;;;;;;;;20.60;47.60;;;;;;4955593;28;19914;-82
2021/12/09 14:54:51;;;;;;;;;;;20.60;48.20;;;;;;4956129;29;19918;-82
2021/12/09 14:57:16;;;;;;;;;;;20.60;47.60;;;;;;4956942;28;19914;-82
2021/12/09 14:59:45;;;;;;;;;;;20.60;47.60;;;;;;4956933;29;19916;-82
2021/12/09 15:02:11;;;;;;;;;;;20.60;47.70;;;;;;4956572;28;19997;-83
2021/12/09 15:04:45;;;;;;;;;;;20.60;47.70;;;;;;4956322;28;19950;-83